Time;durP1;ratioP1;P1;durP2;ratioP2;P2;SDS_P1;SDS_P2;PMS_P1;PMS_P2;Temp;Humidity;BMP_temperature;BMP_pressure;BME280_temperature;BME280_humidity;BME280_pressure;Samples;Min_cycle;Max_cycle;Signal;HPM_P1;HPM_P2
2021/07/02 00:01:01;;;;;;;;;;;;;;;-148.22;100.00;58358.63;5033462;28;1330;-76
2021/07/02 00:03:28;;;;;;;;;;;;;;;-148.22;100.00;58358.63;5033652;28;1969;-76
2021/07/02 00:05:53;;;;;;;;;;;;;;;-148.22;100.00;58358.63;5033532;28;1232;-76
2021/07/02 00:08:18;;;;;;;;;;;;;;;-148.22;100.00;58358.63;5033476;28;1090;-76
2021/07/02 00:10:45;;;;;;;;;;;;;;;-148.22;100.00;58358.63;5033628;28;764;-76
2021/07/02 00:13:11;;;;;;;;;;;;;;;-148.22;100.00;58358.63;5032650;28;1025;-76
2021/07/02 00:15:45;;;;;;;;;;;;;;;-148.22;100.00;58358.63;5032222;28;923;-76
2021/07/02 00:18:20;;;;;;;;;;;;;;;-148.22;100.00;58358.63;5033440;28;1073;-77
2021/07/02 00:20:46;;;;;;;;;;;;;;;-148.22;100.00;58358.63;5033380;28;1446;-76
2021/07/02 00:23:12;;;;;;;;;;;;;;;-148.22;100.00;58358.63;5033538;28;918;-76
2021/07/02 00:25:39;;;;;;;;;;;;;;;-148.22;100.00;58358.63;5033225;28;1969;-76
2021/07/02 00:28:05;;;;;;;;;;;;;;;-148.22;100.00;58358.63;5033442;28;831;-76
2021/07/02 00:30:31;;;;;;;;;;;;;;;-148.22;100.00;58358.63;5033421;28;1074;-76
2021/07/02 00:32:58;;;;;;;;;;;;;;;-148.22;100.00;58358.63;5033393;28;1001;-76
2021/07/02 00:35:25;;;;;;;;;;;;;;;-148.22;100.00;58358.63;5033419;28;811;-76
2021/07/02 00:37:50;;;;;;;;;;;;;;;-148.22;100.00;58358.63;5027391;28;1078;-76
2021/07/02 00:40:16;;;;;;;;;;;;;;;-148.22;100.00;58358.63;5018916;28;1015;-76
2021/07/02 00:42:48;;;;;;;;;;;;;;;-148.22;100.00;58358.63;5017750;28;880;-76
2021/07/02 00:45:14;;;;;;;;;;;;;;;-148.22;100.00;58358.63;5018143;28;1887;-76
2021/07/02 00:47:48;;;;;;;;;;;;;;;-148.22;100.00;58358.63;5019580;28;791;-76
2021/07/02 00:50:14;;;;;;;;;;;;;;;-148.22;100.00;58358.63;5019434;28;768;-76
2021/07/02 00:52:51;;;;;;;;;;;;;;;-148.22;100.00;58358.63;5019238;28;907;-76
2021/07/02 00:55:26;;;;;;;;;;;;;;;-148.22;100.00;58358.63;5019320;28;839;-76
2021/07/02 00:57:52;;;;;;;;;;;;;;;-148.22;100.00;58358.63;5018694;28;1223;-75
2021/07/02 01:00:17;;;;;;;;;;;;;;;-148.22;100.00;58358.63;5018658;28;1017;-76
2021/07/02 01:02:43;;;;;;;;;;;;;;;-148.22;100.00;58358.63;5018487;28;1052;-76
2021/07/02 01:05:10;;;;;;;;;;;;;;;-148.22;100.00;58358.63;5019153;28;1858;-76
2021/07/02 01:07:35;;;;;;;;;;;;;;;-148.22;100.00;58358.63;5019052;28;1043;-76
2021/07/02 01:10:02;;;;;;;;;;;;;;;-148.22;100.00;58358.63;5018875;28;1062;-76
2021/07/02 01:12:36;;;;;;;;;;;;;;;-148.22;100.00;58358.63;5017744;28;1297;-76
2021/07/02 01:15:02;;;;;;;;;;;;;;;-148.22;100.00;58358.63;5018911;28;934;-76
2021/07/02 01:17:29;;;;;;;;;;;;;;;-148.22;100.00;58358.63;5018895;28;874;-76
2021/07/02 01:19:55;;;;;;;;;;;;;;;-148.22;100.00;58358.63;5018931;28;780;-76
2021/07/02 01:22:25;;;;;;;;;;;;;;;-148.22;100.00;58358.63;5018786;28;800;-76
2021/07/02 01:24:50;;;;;;;;;;;;;;;-148.22;100.00;58358.63;5018885;28;1914;-76
2021/07/02 01:27:17;;;;;;;;;;;;;;;-148.22;100.00;58358.63;5018665;28;799;-75
2021/07/02 01:29:44;;;;;;;;;;;;;;;-148.22;100.00;58358.63;5018671;28;1017;-76
2021/07/02 01:32:10;;;;;;;;;;;;;;;-148.22;100.00;58358.63;5017044;28;897;-75
2021/07/02 01:34:39;;;;;;;;;;;;;;;-148.22;100.00;58358.63;5017718;28;942;-75
2021/07/02 01:37:05;;;;;;;;;;;;;;;-148.22;100.00;58358.63;5018559;28;772;-75
2021/07/02 01:39:32;;;;;;;;;;;;;;;-148.22;100.00;58358.63;5018295;28;816;-76
2021/07/02 01:41:59;;;;;;;;;;;;;;;-148.22;100.00;58358.63;5018384;28;843;-75
2021/07/02 01:44:26;;;;;;;;;;;;;;;-148.22;100.00;58358.63;5018292;28;1867;-75
2021/07/02 01:46:52;;;;;;;;;;;;;;;-148.22;100.00;58358.63;5018308;28;910;-75
2021/07/02 01:49:18;;;;;;;;;;;;;;;-148.22;100.00;58358.63;5017566;28;760;-76
2021/07/02 01:51:44;;;;;;;;;;;;;;;-148.22;100.00;58358.63;5033177;28;1184;-76
2021/07/02 01:54:10;;;;;;;;;;;;;;;-148.22;100.00;58358.63;5017729;28;1162;-76
2021/07/02 01:56:38;;;;;;;;;;;;;;;-148.22;100.00;58358.63;5014587;28;884;-76
2021/07/02 01:59:03;;;;;;;;;;;;;;;-148.22;100.00;58358.63;5018138;28;1056;-75
2021/07/02 02:01:30;;;;;;;;;;;;;;;-148.22;100.00;58358.63;5017667;28;1364;-75
2021/07/02 02:03:59;;;;;;;;;;;;;;;-148.22;100.00;58358.63;5017902;28;1967;-75
2021/07/02 02:06:31;;;;;;;;;;;;;;;-148.22;100.00;58358.63;5015321;28;1107;-75
2021/07/02 02:08:56;;;;;;;;;;;;;;;-148.22;100.00;58358.63;4998382;28;804;-75
2021/07/02 02:11:23;;;;;;;;;;;;;;;-148.22;100.00;58358.63;4998309;28;823;-75
2021/07/02 02:13:51;;;;;;;;;;;;;;;-148.22;100.00;58358.63;4998330;28;760;-76
2021/07/02 02:16:17;;;;;;;;;;;;;;;-148.22;100.00;58358.63;4998367;28;875;-76
2021/07/02 02:18:42;;;;;;;;;;;;;;;-148.22;100.00;58358.63;4998189;28;1005;-76
2021/07/02 02:21:08;;;;;;;;;;;;;;;-148.22;100.00;58358.63;4997518;28;877;-75
2021/07/02 02:23:35;;;;;;;;;;;;;;;-148.22;100.00;58358.63;4997032;28;1911;-75
2021/07/02 02:26:02;;;;;;;;;;;;;;;-148.22;100.00;58358.63;4998212;28;835;-76
2021/07/02 02:28:27;;;;;;;;;;;;;;;-148.22;100.00;58358.63;4997980;28;1021;-75
2021/07/02 02:30:53;;;;;;;;;;;;;;;-148.22;100.00;58358.63;4998071;28;780;-75
2021/07/02 02:33:21;;;;;;;;;;;;;;;-148.22;100.00;58358.63;5012978;28;985;-76
2021/07/02 02:35:54;;;;;;;;;;;;;;;-148.22;100.00;58358.63;4996656;28;974;-75
2021/07/02 02:38:20;;;;;;;;;;;;;;;-148.22;100.00;58358.63;4997832;28;784;-76
2021/07/02 02:40:46;;;;;;;;;;;;;;;-148.22;100.00;58358.63;4997872;28;503;-76
2021/07/02 02:43:17;;;;;;;;;;;;;;;-148.22;100.00;58358.63;4997685;28;1032;-76
2021/07/02 02:45:43;;;;;;;;;;;;;;;-148.22;100.00;58358.63;4997641;28;1890;-75
2021/07/02 02:48:11;;;;;;;;;;;;;;;-148.22;100.00;58358.63;4997523;28;1005;-75
2021/07/02 02:50:37;;;;;;;;;;;;;;;-148.22;100.00;58358.63;4997590;28;752;-75
2021/07/02 02:53:02;;;;;;;;;;;;;;;-148.22;100.00;58358.63;4997555;28;808;-75
2021/07/02 02:55:27;;;;;;;;;;;;;;;-148.22;100.00;58358.63;4997375;28;1271;-76
2021/07/02 02:57:54;;;;;;;;;;;;;;;-148.22;100.00;58358.63;4997402;28;804;-75
2021/07/02 03:00:21;;;;;;;;;;;;;;;-148.22;100.00;58358.63;4997367;28;879;-76
2021/07/02 03:02:48;;;;;;;;;;;;;;;-148.22;100.00;58358.63;4997368;28;749;-76
2021/07/02 03:05:21;;;;;;;;;;;;;;;-148.22;100.00;58358.63;4997326;28;1878;-76
2021/07/02 03:07:47;;;;;;;;;;;;;;;-148.22;100.00;58358.63;5007642;28;1076;-75
2021/07/02 03:10:20;;;;;;;;;;;;;;;-148.22;100.00;58358.63;5016656;28;839;-75
2021/07/02 03:12:46;;;;;;;;;;;;;;;-148.22;100.00;58358.63;5016935;28;1052;-75
2021/07/02 03:15:13;;;;;;;;;;;;;;;-148.22;100.00;58358.63;5016633;28;804;-75
2021/07/02 03:17:41;;;;;;;;;;;;;;;-148.22;100.00;58358.63;5016591;28;811;-75
2021/07/02 03:20:07;;;;;;;;;;;;;;;-148.22;100.00;58358.63;5016697;28;780;-75
2021/07/02 03:22:33;;;;;;;;;;;;;;;-148.22;100.00;58358.63;5016612;28;1228;-75
2021/07/02 03:25:01;;;;;;;;;;;;;;;-148.22;100.00;58358.63;5016482;28;1961;-76
2021/07/02 03:27:28;;;;;;;;;;;;;;;-148.22;100.00;58358.63;5016536;28;792;-75
2021/07/02 03:29:54;;;;;;;;;;;;;;;-148.22;100.00;58358.63;5016591;28;993;-76
2021/07/02 03:32:20;;;;;;;;;;;;;;;-148.22;100.00;58358.63;5016457;28;768;-75
2021/07/02 03:34:52;;;;;;;;;;;;;;;-148.22;100.00;58358.63;5016496;28;819;-75
2021/07/02 03:37:19;;;;;;;;;;;;;;;-148.22;100.00;58358.63;5031623;28;799;-75
2021/07/02 03:39:45;;;;;;;;;;;;;;;-148.22;100.00;58358.63;5016374;28;895;-75
2021/07/02 03:42:11;;;;;;;;;;;;;;;-148.22;100.00;58358.63;5016446;28;788;-76
2021/07/02 03:44:46;;;;;;;;;;;;;;;-148.22;100.00;58358.63;5013163;28;1945;-75
2021/07/02 03:47:12;;;;;;;;;;;;;;;-148.22;100.00;58358.63;5015550;28;969;-75
2021/07/02 03:49:40;;;;;;;;;;;;;;;-148.22;100.00;58358.63;5016028;28;811;-76
2021/07/02 03:52:07;;;;;;;;;;;;;;;-148.22;100.00;58358.63;5016207;28;951;-76
2021/07/02 03:54:33;;;;;;;;;;;;;;;-148.22;100.00;58358.63;5016056;28;1186;-76
2021/07/02 03:57:11;;;;;;;;;;;;;;;-148.22;100.00;58358.63;5014815;28;1249;-76
2021/07/02 03:59:43;;;;;;;;;;;;;;;-148.22;100.00;58358.63;5015827;28;1234;-75
2021/07/02 04:02:22;;;;;;;;;;;;;;;-148.22;100.00;58358.63;5014594;28;1314;-75
2021/07/02 04:04:47;;;;;;;;;;;;;;;-148.22;100.00;58358.63;5015923;28;1952;-75
2021/07/02 04:07:13;;;;;;;;;;;;;;;-148.22;100.00;58358.63;5013953;28;1241;-75
2021/07/02 04:09:39;;;;;;;;;;;;;;;-148.22;100.00;58358.63;5015851;28;911;-75
2021/07/02 04:12:05;;;;;;;;;;;;;;;-148.22;100.00;58358.63;5015566;28;773;-75
2021/07/02 04:14:32;;;;;;;;;;;;;;;-148.22;100.00;58358.63;5015723;28;776;-76
2021/07/02 04:16:58;;;;;;;;;;;;;;;-148.22;100.00;58358.63;5015849;28;962;-75
2021/07/02 04:19:25;;;;;;;;;;;;;;;-148.22;100.00;58358.63;5015802;28;788;-75
2021/07/02 04:21:51;;;;;;;;;;;;;;;-148.22;100.00;58358.63;5015748;28;914;-75
2021/07/02 04:24:43;;;;;;;;;;;;;;;-148.22;100.00;58358.63;5015547;28;1906;-75
2021/07/02 04:27:12;;;;;;;;;;;;;;;-148.22;100.00;58358.63;5033244;28;1103;-75
2021/07/02 04:29:38;;;;;;;;;;;;;;;-148.22;100.00;58358.63;5033547;28;897;-75
2021/07/02 04:32:06;;;;;;;;;;;;;;;-148.22;100.00;58358.63;5033328;28;1052;-75
2021/07/02 04:34:46;;;;;;;;;;;;;;;-148.22;100.00;58358.63;5033127;28;1168;-75
2021/07/02 04:37:11;;;;;;;;;;;;;;;-148.22;100.00;58358.63;5033536;28;1354;-75
2021/07/02 04:39:36;;;;;;;;;;;;;;;-148.22;100.00;58358.63;5033446;28;807;-75
2021/07/02 04:42:02;;;;;;;;;;;;;;;-148.22;100.00;58358.63;5033177;28;874;-75
2021/07/02 04:44:29;;;;;;;;;;;;;;;-148.22;100.00;58358.63;5033061;28;1882;-75
2021/07/02 04:46:55;;;;;;;;;;;;;;;-148.22;100.00;58358.63;5033503;28;834;-75
2021/07/02 04:49:21;;;;;;;;;;;;;;;-148.22;100.00;58358.63;5033408;28;922;-75
2021/07/02 04:51:48;;;;;;;;;;;;;;;-148.22;100.00;58358.63;5033100;28;1137;-75
2021/07/02 04:54:15;;;;;;;;;;;;;;;-148.22;100.00;58358.63;5033453;28;858;-75
2021/07/02 04:56:50;;;;;;;;;;;;;;;-148.22;100.00;58358.63;5033244;28;958;-75
2021/07/02 04:59:18;;;;;;;;;;;;;;;-148.22;100.00;58358.63;5033219;28;808;-75
2021/07/02 05:01:44;;;;;;;;;;;;;;;-148.22;100.00;58358.63;5033124;28;811;-75
2021/07/02 05:04:16;;;;;;;;;;;;;;;-148.22;100.00;58358.63;5022567;28;1890;-75
2021/07/02 05:06:41;;;;;;;;;;;;;;;-148.22;100.00;58358.63;5015093;28;1055;-76
2021/07/02 05:09:07;;;;;;;;;;;;;;;-148.22;100.00;58358.63;5014193;28;1309;-75
2021/07/02 05:11:34;;;;;;;;;;;;;;;-148.22;100.00;58358.63;5015165;28;882;-74
2021/07/02 05:14:04;;;;;;;;;;;;;;;-148.22;100.00;58358.63;5014203;28;1077;-75
2021/07/02 05:16:31;;;;;;;;;;;;;;;-148.22;100.00;58358.63;5015223;28;929;-75
2021/07/02 05:19:03;;;;;;;;;;;;;;;-148.22;100.00;58358.63;5015282;28;1009;-75
2021/07/02 05:21:29;;;;;;;;;;;;;;;-148.22;100.00;58358.63;5015310;28;981;-75
2021/07/02 05:23:55;;;;;;;;;;;;;;;-148.22;100.00;58358.63;5017001;28;1961;-75
2021/07/02 05:26:22;;;;;;;;;;;;;;;-148.22;100.00;58358.63;5018813;28;1068;-75
2021/07/02 05:28:51;;;;;;;;;;;;;;;-148.22;100.00;58358.63;5018619;28;1024;-75
2021/07/02 05:31:18;;;;;;;;;;;;;;;-148.22;100.00;58358.63;5018590;28;839;-75
2021/07/02 05:33:44;;;;;;;;;;;;;;;-148.22;100.00;58358.63;5018622;28;859;-75
2021/07/02 05:36:10;;;;;;;;;;;;;;;-148.22;100.00;58358.63;5018527;28;1040;-75
2021/07/02 05:38:36;;;;;;;;;;;;;;;-148.22;100.00;58358.63;5018389;28;894;-75
2021/07/02 05:41:07;;;;;;;;;;;;;;;-148.22;100.00;58358.63;5018485;28;843;-76
2021/07/02 05:43:41;;;;;;;;;;;;;;;-148.22;100.00;58358.63;5018348;28;1947;-75
2021/07/02 05:46:08;;;;;;;;;;;;;;;-148.22;100.00;58358.63;5018190;28;883;-75
2021/07/02 05:48:34;;;;;;;;;;;;;;;-148.22;100.00;58358.63;5018448;28;798;-75
2021/07/02 05:50:59;;;;;;;;;;;;;;;-148.22;100.00;58358.63;5018228;28;780;-76
2021/07/02 05:53:25;;;;;;;;;;;;;;;-148.22;100.00;58358.63;5018265;28;767;-75
2021/07/02 05:55:51;;;;;;;;;;;;;;;-148.22;100.00;58358.63;5018294;28;1007;-75
2021/07/02 05:58:17;;;;;;;;;;;;;;;-148.22;100.00;58358.63;5016892;28;828;-75
2021/07/02 06:00:50;;;;;;;;;;;;;;;-148.22;100.00;58358.63;5018154;28;1215;-75
2021/07/02 06:03:16;;;;;;;;;;;;;;;-148.22;100.00;58358.63;5018017;28;867;-75
2021/07/02 06:05:41;;;;;;;;;;;;;;;-148.22;100.00;58358.63;5017992;28;2003;-75
2021/07/02 06:08:06;;;;;;;;;;;;;;;-148.22;100.00;58358.63;5017925;28;1083;-75
2021/07/02 06:10:34;;;;;;;;;;;;;;;-148.22;100.00;58358.63;5017979;28;810;-75
2021/07/02 06:13:00;;;;;;;;;;;;;;;-148.22;100.00;58358.63;5017885;28;784;-75
2021/07/02 06:15:26;;;;;;;;;;;;;;;-148.22;100.00;58358.63;5017810;28;788;-75
2021/07/02 06:17:53;;;;;;;;;;;;;;;-148.22;100.00;58358.63;5017813;28;768;-75
2021/07/02 06:20:18;;;;;;;;;;;;;;;-148.22;100.00;58358.63;5016213;28;955;-75
2021/07/02 06:22:46;;;;;;;;;;;;;;;-148.22;100.00;58358.63;5017052;28;944;-75
2021/07/02 06:25:22;;;;;;;;;;;;;;;-148.22;100.00;58358.63;5015915;28;1914;-75
2021/07/02 06:27:48;;;;;;;;;;;;;;;-148.22;100.00;58358.63;5017567;28;1048;-75
2021/07/02 06:30:16;;;;;;;;;;;;;;;-148.22;100.00;58358.63;5017288;28;1353;-75
2021/07/02 06:32:44;;;;;;;;;;;;;;;-148.22;100.00;58358.63;5016727;28;1175;-75
2021/07/02 06:35:09;;;;;;;;;;;;;;;-148.22;100.00;58358.63;5017042;28;1001;-75
2021/07/02 06:37:35;;;;;;;;;;;;;;;-148.22;100.00;58358.63;5017395;28;838;-75
2021/07/02 06:40:01;;;;;;;;;;;;;;;-148.22;100.00;58358.63;5017120;28;1004;-75
2021/07/02 06:42:27;;;;;;;;;;;;;;;-148.22;100.00;58358.63;5017180;28;796;-76
2021/07/02 06:44:52;;;;;;;;;;;;;;;-148.22;100.00;58358.63;5017370;28;1949;-76
2021/07/02 06:47:18;;;;;;;;;;;;;;;-148.22;100.00;58358.63;5017743;28;760;-76
2021/07/02 06:49:45;;;;;;;;;;;;;;;-148.22;100.00;58358.63;5017522;28;863;-76
2021/07/02 06:52:10;;;;;;;;;;;;;;;-148.22;100.00;58358.63;5017614;28;1018;-76
2021/07/02 06:54:36;;;;;;;;;;;;;;;-148.22;100.00;58358.63;5016100;28;831;-76
2021/07/02 06:57:14;;;;;;;;;;;;;;;-148.22;100.00;58358.63;5017069;28;862;-75
2021/07/02 06:59:40;;;;;;;;;;;;;;;-148.22;100.00;58358.63;5016947;28;874;-75
2021/07/02 07:02:16;;;;;;;;;;;;;;;-148.22;100.00;58358.63;5016928;28;879;-75
2021/07/02 07:04:41;;;;;;;;;;;;;;;-148.22;100.00;58358.63;5016714;28;1894;-76
2021/07/02 07:07:07;;;;;;;;;;;;;;;-148.22;100.00;58358.63;5015683;28;1121;-77
2021/07/02 07:09:33;;;;;;;;;;;;;;;-148.22;100.00;58358.63;5014268;28;900;-77
2021/07/02 07:12:00;;;;;;;;;;;;;;;-148.22;100.00;58358.63;5016732;28;885;-76
2021/07/02 07:14:25;;;;;;;;;;;;;;;-148.22;100.00;58358.63;5016846;28;820;-76
2021/07/02 07:16:50;;;;;;;;;;;;;;;-148.22;100.00;58358.63;5016716;28;811;-76
2021/07/02 07:19:17;;;;;;;;;;;;;;;-148.22;100.00;58358.63;5016766;28;811;-76
2021/07/02 07:21:45;;;;;;;;;;;;;;;-148.22;100.00;58358.63;5016650;28;857;-76
2021/07/02 07:24:12;;;;;;;;;;;;;;;-148.22;100.00;58358.63;5016509;28;1910;-76
2021/07/02 07:26:39;;;;;;;;;;;;;;;-148.22;100.00;58358.63;5016535;28;1076;-75
2021/07/02 07:29:05;;;;;;;;;;;;;;;-148.22;100.00;58358.63;5016573;28;795;-76
2021/07/02 07:31:31;;;;;;;;;;;;;;;-148.22;100.00;58358.63;5015078;28;885;-76
2021/07/02 07:33:58;;;;;;;;;;;;;;;-148.22;100.00;58358.63;5015690;28;872;-75
2021/07/02 07:36:25;;;;;;;;;;;;;;;-148.22;100.00;58358.63;5015706;28;1307;-75
2021/07/02 07:38:51;;;;;;;;;;;;;;;-148.22;100.00;58358.63;5014502;28;1554;-76
2021/07/02 07:41:18;;;;;;;;;;;;;;;-148.22;100.00;58358.63;4996544;28;847;-75
2021/07/02 07:43:43;;;;;;;;;;;;;;;-148.22;100.00;58358.63;4999066;28;1902;-77
2021/07/02 07:46:10;;;;;;;;;;;;;;;-148.22;100.00;58358.63;4996084;28;974;-77
2021/07/02 07:48:36;;;;;;;;;;;;;;;-148.22;100.00;58358.63;4996784;28;776;-76
2021/07/02 07:53:39;;;;;;;;;;;;;;;-148.22;100.00;58358.63;4996789;28;906;-77
2021/07/02 07:56:12;;;;;;;;;;;;;;;-148.22;100.00;58358.63;4996485;28;989;-77
2021/07/02 07:58:42;;;;;;;;;;;;;;;-148.22;100.00;58358.63;4996459;28;934;-77
2021/07/02 08:01:10;;;;;;;;;;;;;;;-148.22;100.00;58358.63;4996257;28;1319;-77
2021/07/02 08:03:35;;;;;;;;;;;;;;;-148.22;100.00;58358.63;4990163;23;1965;-76
2021/07/02 08:06:01;;;;;;;;;;;;;;;-148.22;100.00;58358.63;4975503;28;1122;-76
2021/07/02 08:08:27;;;;;;;;;;;;;;;-148.22;100.00;58358.63;4975482;28;1218;-76
2021/07/02 08:11:02;;;;;;;;;;;;;;;-148.22;100.00;58358.63;4975003;28;1814;-76
2021/07/02 08:13:35;;;;;;;;;;;;;;;-148.22;100.00;58358.63;4976252;28;1527;-76
2021/07/02 08:16:02;;;;;;;;;;;;;;;-148.22;100.00;58358.63;4975444;28;1261;-76
2021/07/02 08:18:28;;;;;;;;;;;;;;;-148.22;100.00;58358.63;4976607;28;1052;-76
2021/07/02 08:20:54;;;;;;;;;;;;;;;-148.22;100.00;58358.63;4969347;28;1181;-76
2021/07/02 08:23:21;;;;;;;;;;;;;;;-148.22;100.00;58358.63;4957327;29;904;-76
2021/07/02 08:25:49;;;;;;;;;;;;;;;-148.22;100.00;58358.63;4957153;29;1910;-76
2021/07/02 08:31:01;;;;;;;;;;;;;;;-148.22;100.00;58358.63;4976738;28;685;-75
2021/07/02 08:33:26;;;;;;;;;;;;;;;-148.22;100.00;58358.63;4976627;28;796;-76
2021/07/02 08:36:02;;;;;;;;;;;;;;;-148.22;100.00;58358.63;4970119;28;1444;-77
2021/07/02 08:38:27;;;;;;;;;;;;;;;-148.22;100.00;58358.63;4975669;28;1269;-76
2021/07/02 08:40:55;;;;;;;;;;;;;;;-148.22;100.00;58358.63;4976117;28;1383;-77
2021/07/02 08:43:33;;;;;;;;;;;;;;;-148.22;100.00;58358.63;4973716;28;1223;-77
2021/07/02 08:46:11;;;;;;;;;;;;;;;-148.22;100.00;58358.63;4976359;28;1890;-80
2021/07/02 08:48:50;;;;;;;;;;;;;;;-148.22;100.00;58358.63;4975205;28;1327;-76
2021/07/02 08:51:15;;;;;;;;;;;;;;;-148.22;100.00;58358.63;4974908;28;1398;-76
2021/07/02 08:53:41;;;;;;;;;;;;;;;-148.22;100.00;58358.63;4974514;28;1656;-76
2021/07/02 08:56:08;;;;;;;;;;;;;;;-148.22;100.00;58358.63;4976006;28;1401;-76
2021/07/02 08:58:34;;;;;;;;;;;;;;;-148.22;100.00;58358.63;4993454;28;1816;-76
2021/07/02 09:01:07;;;;;;;;;;;;;;;-148.22;100.00;58358.63;4979047;28;1368;-76
2021/07/02 09:03:37;;;;;;;;;;;;;;;-148.22;100.00;58358.63;4978643;28;1466;-76
2021/07/02 09:06:05;;;;;;;;;;;;;;;-148.22;100.00;58358.63;4978438;28;1911;-77
2021/07/02 09:08:34;;;;;;;;;;;;;;;-148.22;100.00;58358.63;4978706;28;1265;-77
2021/07/02 09:11:01;;;;;;;;;;;;;;;-148.22;100.00;58358.63;4979733;28;846;-77
2021/07/02 09:13:45;;;;;;;;;;;;;;;-148.22;100.00;58358.63;4978528;28;1214;-76
2021/07/02 09:17:04;;;;;;;;;;;;;;;-148.22;100.00;58358.63;4994561;28;1255;-76
2021/07/02 09:19:28;;;;;;;;;;;;;;;-148.22;100.00;58358.63;4976683;28;1189;-76
2021/07/02 09:22:12;;;;;;;;;;;;;;;-148.22;100.00;58358.63;4978335;28;1243;-76
2021/07/02 09:24:39;;;;;;;;;;;;;;;-148.22;100.00;58358.63;4978454;28;1886;-76
2021/07/02 09:27:25;;;;;;;;;;;;;;;-148.22;100.00;58358.63;4978310;28;1301;-76
2021/07/02 09:30:07;;;;;;;;;;;;;;;-148.22;100.00;58358.63;4994740;28;1183;-76
2021/07/02 09:32:38;;;;;;;;;;;;;;;-148.22;100.00;58358.63;4978052;28;1331;-76
2021/07/02 09:35:05;;;;;;;;;;;;;;;-148.22;100.00;58358.63;4979419;28;815;-76
2021/07/02 09:37:47;;;;;;;;;;;;;;;-148.22;100.00;58358.63;4977999;28;1034;-76
2021/07/02 09:40:15;;;;;;;;;;;;;;;-148.22;100.00;58358.63;4978133;28;1173;-76
2021/07/02 09:43:07;;;;;;;;;;;;;;;-148.22;100.00;58358.63;4977835;28;1546;-76
2021/07/02 09:45:33;;;;;;;;;;;;;;;-148.22;100.00;58358.63;4977948;28;1882;-76
2021/07/02 09:48:07;;;;;;;;;;;;;;;-148.22;100.00;58358.63;4977787;28;1385;-76
2021/07/02 09:50:34;;;;;;;;;;;;;;;-148.22;100.00;58358.63;4978016;28;1224;-76
2021/07/02 09:53:03;;;;;;;;;;;;;;;-148.22;100.00;58358.63;4979008;28;1373;-76
2021/07/02 09:55:31;;;;;;;;;;;;;;;-148.22;100.00;58358.63;4977882;28;1277;-76
2021/07/02 09:58:11;;;;;;;;;;;;;;;-148.22;100.00;58358.63;4994056;28;1244;-76
2021/07/02 10:00:44;;;;;;;;;;;;;;;-148.22;100.00;58358.63;4994200;28;1315;-76
2021/07/02 10:03:10;;;;;;;;;;;;;;;-148.22;100.00;58358.63;4970178;28;1262;-77
2021/07/02 10:06:14;;;;;;;;;;;;;;;-148.22;100.00;58358.63;4977683;28;1911;-76
2021/07/02 10:08:48;;;;;;;;;;;;;;;-148.22;100.00;58358.63;4976248;28;1304;-76
2021/07/02 10:11:14;;;;;;;;;;;;;;;-148.22;100.00;58358.63;4960647;28;1258;-76
2021/07/02 10:13:41;;;;;;;;;;;;;;;-148.22;100.00;58358.63;4961071;28;1265;-76
2021/07/02 10:16:08;;;;;;;;;;;;;;;-148.22;100.00;58358.63;4960555;28;1217;-76
2021/07/02 10:18:54;;;;;;;;;;;;;;;-148.22;100.00;58358.63;4976616;28;780;-77
2021/07/02 10:21:22;;;;;;;;;;;;;;;-148.22;100.00;58358.63;4960521;28;1201;-77
2021/07/02 10:23:50;;;;;;;;;;;;;;;-148.22;100.00;58358.63;4976323;28;1957;-77
2021/07/02 10:26:17;;;;;;;;;;;;;;;-148.22;100.00;58358.63;4960274;28;1162;-77
2021/07/02 10:28:44;;;;;;;;;;;;;;;-148.22;100.00;58358.63;4976598;28;939;-76
2021/07/02 10:31:11;;;;;;;;;;;;;;;-148.22;100.00;58358.63;4960276;28;1216;-77
2021/07/02 10:33:52;;;;;;;;;;;;;;;-148.22;100.00;58358.63;4976634;28;883;-76
2021/07/02 10:36:47;;;;;;;;;;;;;;;-148.22;100.00;58358.63;4960331;28;1173;-76
2021/07/02 10:39:35;;;;;;;;;;;;;;;-148.22;100.00;58358.63;4872358;29;1248;-76
2021/07/02 10:42:09;;;;;;;;;;;;;;;-148.22;100.00;58358.63;4870364;29;1390;-76
2021/07/02 10:44:52;;;;;;;;;;;;;;;-148.22;100.00;58358.63;4899982;29;1895;-76
2021/07/02 10:47:23;;;;;;;;;;;;;;;-148.22;100.00;58358.63;4900069;29;987;-76
2021/07/02 10:49:50;;;;;;;;;;;;;;;-148.22;100.00;58358.63;4899796;29;1364;-76
2021/07/02 10:52:16;;;;;;;;;;;;;;;-148.22;100.00;58358.63;4899831;29;820;-76
2021/07/02 10:54:44;;;;;;;;;;;;;;;-148.22;100.00;58358.63;4899762;29;1187;-76
2021/07/02 10:57:12;;;;;;;;;;;;;;;-148.22;100.00;58358.63;4896445;29;1306;-76
2021/07/02 10:59:38;;;;;;;;;;;;;;;-148.22;100.00;58358.63;4881113;29;880;-76
2021/07/02 11:02:12;;;;;;;;;;;;;;;-148.22;100.00;58358.63;4880965;29;1109;-76
2021/07/02 11:04:44;;;;;;;;;;;;;;;-148.22;100.00;58358.63;4907888;29;1907;-76
2021/07/02 11:07:14;;;;;;;;;;;;;;;-148.22;100.00;58358.63;4918258;29;1286;-77
2021/07/02 11:10:11;;;;;;;;;;;;;;;-148.22;100.00;58358.63;4918454;29;1032;-78
2021/07/02 11:12:42;;;;;;;;;;;;;;;-148.22;100.00;58358.63;4916132;29;1291;-77
2021/07/02 11:15:18;;;;;;;;;;;;;;;-148.22;100.00;58358.63;4939269;28;1222;-78
2021/07/02 11:17:44;;;;;;;;;;;;;;;-148.22;100.00;58358.63;4962695;28;1599;-75
2021/07/02 11:20:11;;;;;;;;;;;;;;;-148.22;100.00;58358.63;4956374;28;1713;-75
2021/07/02 11:22:59;;;;;;;;;;;;;;;-148.22;100.00;58358.63;4958064;28;835;-78
2021/07/02 11:26:00;;;;;;;;;;;;;;;-148.22;100.00;58358.63;4957268;29;1875;-79
2021/07/02 11:28:42;;;;;;;;;;;;;;;-148.22;100.00;58358.63;4902513;29;1440;-79
2021/07/02 11:31:09;;;;;;;;;;;;;;;-148.22;100.00;58358.63;4902764;29;1333;-79
2021/07/02 11:33:36;;;;;;;;;;;;;;;-148.22;100.00;58358.63;4902294;29;1255;-79
2021/07/02 11:36:03;;;;;;;;;;;;;;;-148.22;100.00;58358.63;4898763;29;1579;-80
2021/07/02 11:38:29;;;;;;;;;;;;;;;-148.22;100.00;58358.63;4898881;29;979;-79
2021/07/02 11:41:04;;;;;;;;;;;;;;;-148.22;100.00;58358.63;4903581;29;1524;-80
2021/07/02 11:43:32;;;;;;;;;;;;;;;-148.22;100.00;58358.63;4898629;29;1340;-78
2021/07/02 11:46:19;;;;;;;;;;;;;;;-148.22;100.00;58358.63;4935861;29;1887;-79
2021/07/02 11:48:55;;;;;;;;;;;;;;;-148.22;100.00;58358.63;4920482;29;1315;-80
2021/07/02 11:51:24;;;;;;;;;;;;;;;-148.22;100.00;58358.63;4936452;29;1237;-78
2021/07/02 11:53:55;;;;;;;;;;;;;;;-148.22;100.00;58358.63;4920608;29;1295;-78
2021/07/02 11:56:28;;;;;;;;;;;;;;;-148.22;100.00;58358.63;4936463;29;1212;-78
2021/07/02 11:59:00;;;;;;;;;;;;;;;-148.22;100.00;58358.63;4903772;29;1644;-79
2021/07/02 12:04:37;;;;;;;;;;;;;;;-148.22;100.00;58358.63;4946707;29;1910;-78
2021/07/02 12:07:10;;;;;;;;;;;;;;;-148.22;100.00;58358.63;4939241;29;1259;-78
2021/07/02 12:09:42;;;;;;;;;;;;;;;-148.22;100.00;58358.63;4939046;29;1461;-78
2021/07/02 12:12:08;;;;;;;;;;;;;;;-148.22;100.00;58358.63;4935381;29;1671;-79
2021/07/02 12:14:39;;;;;;;;;;;;;;;-148.22;100.00;58358.63;4955323;29;937;-78
2021/07/02 12:17:05;;;;;;;;;;;;;;;-148.22;100.00;58358.63;4930677;29;1670;-78
2021/07/02 12:19:36;;;;;;;;;;;;;;;-148.22;100.00;58358.63;4936220;29;1741;-79
2021/07/02 12:22:06;;;;;;;;;;;;;;;-148.22;100.00;58358.63;4920219;29;1642;-79
2021/07/02 12:24:35;;;;;;;;;;;;;;;-148.22;100.00;58358.63;4926280;29;1899;-78
2021/07/02 12:27:03;;;;;;;;;;;;;;;-148.22;100.00;58358.63;4941437;29;1730;-75
2021/07/02 12:29:29;;;;;;;;;;;;;;;-148.22;100.00;58358.63;4925849;29;1880;-75
2021/07/02 12:31:59;;;;;;;;;;;;;;;-148.22;100.00;58358.63;4923012;29;1919;-75
2021/07/02 12:34:27;;;;;;;;;;;;;;;-148.22;100.00;58358.63;4939482;29;1417;-75
2021/07/02 12:37:25;;;;;;;;;;;;;;;-148.22;100.00;58358.63;4938963;29;867;-75
2021/07/02 12:39:57;;;;;;;;;;;;;;;-148.22;100.00;58358.63;4901218;29;1007;-75
2021/07/02 12:42:33;;;;;;;;;;;;;;;-148.22;100.00;58358.63;4915898;29;1719;-75
2021/07/02 12:45:08;;;;;;;;;;;;;;;-148.22;100.00;58358.63;4919950;29;1890;-75
2021/07/02 12:47:36;;;;;;;;;;;;;;;-148.22;100.00;58358.63;4904174;29;1172;-75
2021/07/02 12:50:05;;;;;;;;;;;;;;;-148.22;100.00;58358.63;4919932;29;1088;-75